createdAt,value
2018-02-19T00:00:58.322Z,0
2018-02-19T00:02:07.512Z,0
2018-02-19T00:03:16.995Z,0
2018-02-19T00:04:26.830Z,0
2018-02-19T00:05:36.818Z,0
2018-02-19T00:06:46.823Z,0
2018-02-19T00:07:56.562Z,0
2018-02-19T00:09:06.558Z,0
2018-02-19T00:10:16.279Z,0
2018-02-19T00:11:26.281Z,0
2018-02-19T00:12:36.051Z,0
2018-02-19T00:13:45.511Z,0
2018-02-19T00:14:55.235Z,0
2018-02-19T00:16:05.223Z,0
2018-02-19T00:17:14.685Z,0
2018-02-19T00:18:24.143Z,0
2018-02-19T00:19:33.597Z,0
2018-02-19T00:20:43.589Z,0
2018-02-19T00:21:53.310Z,0
2018-02-19T00:23:03.299Z,0
2018-02-19T00:24:13.026Z,0
2018-02-19T00:25:22.753Z,0
2018-02-19T00:26:32.472Z,0
2018-02-19T00:27:42.253Z,0
2018-02-19T00:28:51.976Z,0
2018-02-19T00:30:01.699Z,0
2018-02-19T00:31:11.161Z,0
2018-02-19T00:32:20.353Z,0
2018-02-19T00:33:30.080Z,0
2018-02-19T00:34:40.090Z,0
2018-02-19T00:35:50.155Z,0
2018-02-19T00:37:00.144Z,0
2018-02-19T00:38:10.138Z,0
2018-02-19T00:39:19.338Z,0
2018-02-19T00:40:28.530Z,0
2018-02-19T00:41:37.989Z,0
2018-02-19T00:42:47.711Z,0
2018-02-19T00:43:57.712Z,0
2018-02-19T00:45:06.904Z,0
2018-02-19T00:46:16.359Z,0
2018-02-19T00:47:26.084Z,0
2018-02-19T00:48:35.542Z,0
2018-02-19T00:49:45.263Z,0
2018-02-19T00:50:54.996Z,0
2018-02-19T00:52:04.451Z,0
2018-02-19T00:53:14.174Z,0
2018-02-19T00:54:24.171Z,0
2018-02-19T00:55:33.365Z,0
2018-02-19T00:56:43.087Z,0
2018-02-19T00:57:53.140Z,0
2018-02-19T00:59:02.872Z,0
2018-02-19T01:00:12.063Z,0
2018-02-19T01:01:21.783Z,0
2018-02-19T01:02:31.503Z,0
2018-02-19T01:03:41.496Z,0
2018-02-19T01:04:50.961Z,0
2018-02-19T01:06:00.954Z,0
2018-02-19T01:07:10.951Z,0
2018-02-19T01:08:20.952Z,0
2018-02-19T01:09:30.414Z,0
2018-02-19T01:10:40.399Z,0
2018-02-19T01:11:49.856Z,0
2018-02-19T01:12:59.411Z,0
2018-02-19T01:14:09.135Z,0
2018-02-19T01:15:19.127Z,0
2018-02-19T01:16:29.120Z,0
2018-02-19T01:17:39.114Z,0
2018-02-19T01:18:48.855Z,0
2018-02-19T01:19:58.857Z,0
2018-02-19T01:21:08.857Z,0
2018-02-19T01:22:18.859Z,0
2018-02-19T01:23:28.853Z,0
2018-02-19T01:24:38.579Z,0
2018-02-19T01:25:48.588Z,0
2018-02-19T01:26:58.582Z,0
2018-02-19T01:28:07.813Z,0
2018-02-19T01:29:17.270Z,0
2018-02-19T01:30:26.993Z,0
2018-02-19T01:31:36.713Z,0
2018-02-19T01:32:46.469Z,0
2018-02-19T01:33:55.927Z,0
2018-02-19T01:35:05.651Z,0
2018-02-19T01:36:15.427Z,0
2018-02-19T01:37:24.883Z,0
2018-02-19T01:38:34.075Z,0
2018-02-19T01:39:44.072Z,0
2018-02-19T01:40:53.792Z,0
2018-02-19T01:42:03.792Z,0
2018-02-19T01:43:13.423Z,0
2018-02-19T01:44:23.177Z,0
2018-02-19T01:45:32.638Z,0
2018-02-19T01:46:42.627Z,0
2018-02-19T01:47:52.619Z,0
2018-02-19T01:49:02.659Z,0
2018-02-19T01:50:12.658Z,0
2018-02-19T01:51:22.380Z,0
2018-02-19T01:52:32.099Z,0
2018-02-19T01:53:41.824Z,0
2018-02-19T01:54:51.558Z,0
2018-02-19T01:56:01.322Z,0
2018-02-19T01:57:11.308Z,0
2018-02-19T01:58:21.314Z,0
2018-02-19T01:59:30.546Z,0
2018-02-19T02:00:40.270Z,0
2018-02-19T02:01:50.263Z,0
2018-02-19T02:03:00.010Z,0
2018-02-19T02:04:09.200Z,0
2018-02-19T02:05:18.661Z,0
2018-02-19T02:06:28.140Z,0
2018-02-19T02:07:37.888Z,0
2018-02-19T02:08:47.360Z,0
2018-02-19T02:09:57.405Z,0
2018-02-19T02:11:07.419Z,0
2018-02-19T02:12:17.426Z,0
2018-02-19T02:13:26.886Z,0
2018-02-19T02:14:36.613Z,0
2018-02-19T02:15:46.649Z,0
2018-02-19T02:16:56.367Z,0
2018-02-19T02:18:05.824Z,0
2018-02-19T02:19:15.299Z,0
2018-02-19T02:20:24.755Z,0
2018-02-19T02:21:34.207Z,0
2018-02-19T02:22:44.213Z,0
2018-02-19T02:23:53.936Z,0
2018-02-19T02:25:03.390Z,0
2018-02-19T02:26:12.580Z,0
2018-02-19T02:27:22.310Z,0
2018-02-19T02:28:32.338Z,0
2018-02-19T02:29:41.798Z,0
2018-02-19T02:30:51.280Z,0
2018-02-19T02:32:00.530Z,0
2018-02-19T02:33:10.000Z,0
2018-02-19T02:34:19.730Z,0
2018-02-19T02:35:29.459Z,0
2018-02-19T02:36:39.474Z,0
2018-02-19T02:37:49.495Z,0
2018-02-19T02:38:59.507Z,0
2018-02-19T02:40:09.249Z,0
2018-02-19T02:41:18.725Z,0
2018-02-19T02:42:28.488Z,0
2018-02-19T02:43:37.960Z,0
2018-02-19T02:44:47.227Z,0
2018-02-19T02:45:56.783Z,0
2018-02-19T02:47:06.820Z,0
2018-02-19T02:48:16.024Z,0
2018-02-19T02:49:26.047Z,0
2018-02-19T02:50:35.576Z,0
2018-02-19T02:51:45.060Z,0
2018-02-19T02:52:54.278Z,0
2018-02-19T02:54:04.309Z,0
2018-02-19T02:55:13.528Z,0
2018-02-19T02:56:23.324Z,0
2018-02-19T02:57:33.079Z,0
2018-02-19T02:58:42.287Z,0
2018-02-19T02:59:52.051Z,0
2018-02-19T03:01:01.530Z,0
2018-02-19T03:02:11.297Z,0
2018-02-19T03:03:21.070Z,0
2018-02-19T03:04:30.851Z,0
2018-02-19T03:05:40.332Z,0
2018-02-19T03:06:49.546Z,0
2018-02-19T03:07:59.383Z,0
2018-02-19T03:09:08.583Z,0
2018-02-19T03:10:18.153Z,0
2018-02-19T03:11:28.253Z,0
2018-02-19T03:12:37.998Z,0
2018-02-19T03:13:47.742Z,0
2018-02-19T03:14:57.216Z,0
2018-02-19T03:16:06.949Z,0
2018-02-19T03:17:16.951Z,0
2018-02-19T03:18:26.701Z,0
2018-02-19T03:19:36.177Z,0
2018-02-19T03:20:45.913Z,0
2018-02-19T03:21:55.664Z,0
2018-02-19T03:23:05.673Z,0
2018-02-19T03:24:14.887Z,0
2018-02-19T03:25:24.646Z,0
2018-02-19T03:26:34.399Z,0
2018-02-19T03:27:44.410Z,0
2018-02-19T03:28:54.442Z,0
2018-02-19T03:30:04.193Z,0
2018-02-19T03:31:13.676Z,0
2018-02-19T03:32:23.417Z,0
2018-02-19T03:33:32.881Z,0
2018-02-19T03:34:42.629Z,0
2018-02-19T03:35:52.376Z,0
2018-02-19T03:37:01.856Z,0
2018-02-19T03:38:11.331Z,0
2018-02-19T03:39:20.536Z,0
2018-02-19T03:40:30.551Z,0
2018-02-19T03:41:40.298Z,0
2018-02-19T03:42:50.299Z,0
2018-02-19T03:43:59.784Z,0
2018-02-19T03:45:08.753Z,0
2018-02-19T03:46:17.955Z,0
2018-02-19T03:47:27.976Z,0
2018-02-19T03:48:37.183Z,0
2018-02-19T03:49:47.192Z,0
2018-02-19T03:50:56.939Z,0
2018-02-19T03:52:05.876Z,0
2018-02-19T03:53:15.609Z,0
2018-02-19T03:54:25.615Z,0
2018-02-19T03:55:35.644Z,0
2018-02-19T03:56:44.590Z,0
2018-02-19T03:57:54.598Z,0
2018-02-19T03:59:04.616Z,0
2018-02-19T04:00:14.099Z,0
2018-02-19T04:01:24.115Z,0
2018-02-19T04:02:33.854Z,0
2018-02-19T04:03:43.864Z,0
2018-02-19T04:04:53.872Z,0
2018-02-19T04:06:03.884Z,0
2018-02-19T04:07:13.364Z,0
2018-02-19T04:08:22.851Z,0
2018-02-19T04:09:32.863Z,0
2018-02-19T04:10:42.334Z,0
2018-02-19T04:11:51.804Z,0
2018-02-19T04:13:01.550Z,0
2018-02-19T04:14:11.307Z,0
2018-02-19T04:15:21.331Z,0
2018-02-19T04:16:31.113Z,0
2018-02-19T04:17:40.857Z,0
2018-02-19T04:18:50.882Z,0
2018-02-19T04:20:00.105Z,0
2018-02-19T04:21:09.621Z,0
2018-02-19T04:22:19.099Z,0
2018-02-19T04:23:28.574Z,0
2018-02-19T04:24:38.348Z,0
2018-02-19T04:25:48.090Z,0
2018-02-19T04:26:57.603Z,0
2018-02-19T04:28:07.644Z,0
2018-02-19T04:29:17.405Z,0
2018-02-19T04:30:27.424Z,0
2018-02-19T04:31:37.420Z,0
2018-02-19T04:32:46.615Z,0
2018-02-19T04:33:56.353Z,0
2018-02-19T04:35:06.366Z,0
2018-02-19T04:36:15.857Z,0
2018-02-19T04:37:25.861Z,0
2018-02-19T04:38:35.609Z,0
2018-02-19T04:39:45.353Z,0
2018-02-19T04:40:55.364Z,0
2018-02-19T04:42:05.382Z,0
2018-02-19T04:43:14.846Z,0
2018-02-19T04:44:23.787Z,0
2018-02-19T04:45:33.541Z,0
2018-02-19T04:46:43.290Z,0
2018-02-19T04:47:53.288Z,0
2018-02-19T04:49:02.764Z,0
2018-02-19T04:50:12.503Z,0
2018-02-19T04:51:21.978Z,0
2018-02-19T04:52:31.735Z,0
2018-02-19T04:53:41.784Z,0
2018-02-19T04:54:51.256Z,0
2018-02-19T04:56:01.274Z,0
2018-02-19T04:57:10.734Z,0
2018-02-19T04:58:20.751Z,0
2018-02-19T04:59:30.497Z,0
2018-02-19T05:00:40.495Z,0
2018-02-19T05:01:50.490Z,0
2018-02-19T05:03:00.506Z,0
2018-02-19T05:04:09.442Z,0
2018-02-19T05:05:19.452Z,0
2018-02-19T05:06:29.204Z,0
2018-02-19T05:07:38.940Z,0
2018-02-19T05:08:48.659Z,0
2018-02-19T05:09:58.394Z,0
2018-02-19T05:11:08.178Z,0
2018-02-19T05:12:17.644Z,0
2018-02-19T05:13:26.843Z,0
2018-02-19T05:14:36.587Z,0
2018-02-19T05:15:45.782Z,0
2018-02-19T05:16:55.802Z,0
2018-02-19T05:18:05.534Z,0
2018-02-19T05:19:15.295Z,0
2018-02-19T05:20:25.043Z,0
2018-02-19T05:21:34.245Z,0
2018-02-19T05:22:44.262Z,0
2018-02-19T05:23:53.738Z,0
2018-02-19T05:25:03.474Z,0
2018-02-19T05:26:12.680Z,0
2018-02-19T05:27:22.701Z,0
2018-02-19T05:28:32.174Z,0
2018-02-19T05:29:41.389Z,0
2018-02-19T05:30:50.879Z,0
2018-02-19T05:32:00.464Z,0
2018-02-19T05:33:10.484Z,0
2018-02-19T05:34:19.967Z,0
2018-02-19T05:35:29.981Z,0
2018-02-19T05:36:39.755Z,0
2018-02-19T05:37:48.966Z,0
2018-02-19T05:38:58.982Z,0
2018-02-19T05:40:08.191Z,0
2018-02-19T05:41:18.207Z,0
2018-02-19T05:42:27.136Z,0
2018-02-19T05:43:36.605Z,0
2018-02-19T05:44:45.907Z,0
2018-02-19T05:45:55.656Z,0
2018-02-19T05:47:05.128Z,0
2018-02-19T05:48:15.139Z,0
2018-02-19T05:49:24.888Z,0
2018-02-19T05:50:34.364Z,0
2018-02-19T05:51:44.117Z,0
2018-02-19T05:52:53.908Z,0
2018-02-19T05:54:03.660Z,0
2018-02-19T05:55:12.863Z,0
2018-02-19T05:56:22.871Z,0
2018-02-19T05:57:32.616Z,0
2018-02-19T05:58:42.359Z,0
2018-02-19T05:59:52.118Z,0
2018-02-19T06:01:02.142Z,0
2018-02-19T06:02:12.168Z,0
2018-02-19T06:03:21.649Z,0
2018-02-19T06:04:31.688Z,0
2018-02-19T06:05:41.703Z,0
2018-02-19T06:06:51.715Z,0
2018-02-19T06:08:01.450Z,0
2018-02-19T06:09:11.460Z,0
2018-02-19T06:10:21.478Z,0
2018-02-19T06:11:30.420Z,0
2018-02-19T06:12:40.211Z,0
2018-02-19T06:13:50.251Z,0
2018-02-19T06:15:00.269Z,0
2018-02-19T06:16:10.292Z,0
2018-02-19T06:17:19.501Z,0
2018-02-19T06:18:28.698Z,0
2018-02-19T06:19:38.440Z,0
2018-02-19T06:20:47.909Z,0
2018-02-19T06:21:57.391Z,0
2018-02-19T06:23:07.153Z,0
2018-02-19T06:24:17.176Z,0
2018-02-19T06:25:26.649Z,0
2018-02-19T06:26:36.665Z,0
2018-02-19T06:27:46.673Z,0
2018-02-19T06:28:56.430Z,0
2018-02-19T06:30:05.905Z,0
2018-02-19T06:31:15.108Z,0
2018-02-19T06:32:24.848Z,0
2018-02-19T06:33:34.054Z,0
2018-02-19T06:34:44.058Z,0
2018-02-19T06:35:54.144Z,0
2018-02-19T06:37:04.213Z,0
2018-02-19T06:38:14.225Z,0
2018-02-19T06:39:23.978Z,0
2018-02-19T06:40:33.542Z,0
2018-02-19T06:41:42.735Z,0
2018-02-19T06:42:52.727Z,0
2018-02-19T06:44:02.463Z,0
2018-02-19T06:45:12.477Z,0
2018-02-19T06:46:21.953Z,0
2018-02-19T06:47:31.981Z,0
2018-02-19T06:48:41.180Z,0
2018-02-19T06:49:50.651Z,0
2018-02-19T06:51:00.114Z,0
2018-02-19T06:52:09.864Z,5
2018-02-19T06:53:19.594Z,5
2018-02-19T06:54:29.768Z,5
2018-02-19T06:55:39.491Z,5
2018-02-19T06:56:48.969Z,5
2018-02-19T06:57:58.696Z,5
2018-02-19T06:59:08.439Z,5
2018-02-19T07:00:18.029Z,5
2018-02-19T07:01:27.755Z,5
2018-02-19T07:02:37.493Z,5
2018-02-19T07:03:46.966Z,10
2018-02-19T07:04:56.519Z,10
2018-02-19T07:06:06.332Z,10
2018-02-19T07:07:16.335Z,10
2018-02-19T07:08:26.338Z,10
2018-02-19T07:09:36.088Z,10
2018-02-19T07:10:45.826Z,10
2018-02-19T07:11:55.852Z,10
2018-02-19T07:13:05.327Z,15
2018-02-19T07:14:15.078Z,15
2018-02-19T07:15:24.668Z,15
2018-02-19T07:16:34.171Z,15
2018-02-19T07:17:43.909Z,15
2018-02-19T07:18:53.921Z,15
2018-02-19T07:20:03.720Z,15
2018-02-19T07:21:13.725Z,15
2018-02-19T07:22:23.729Z,15
2018-02-19T07:23:32.672Z,15
2018-02-19T07:24:42.679Z,15
2018-02-19T07:25:52.144Z,15
2018-02-19T07:27:01.617Z,20
2018-02-19T07:28:11.093Z,20
2018-02-19T07:29:20.980Z,20
2018-02-19T07:30:30.462Z,20
2018-02-19T07:31:40.210Z,20
2018-02-19T07:32:50.216Z,20
2018-02-19T07:34:00.106Z,20
2018-02-19T07:35:09.893Z,20
2018-02-19T07:36:19.616Z,20
2018-02-19T07:37:29.623Z,25
2018-02-19T07:38:39.371Z,25
2018-02-19T07:39:48.837Z,25
2018-02-19T07:40:58.846Z,25
2018-02-19T07:42:08.322Z,30
2018-02-19T07:43:17.259Z,30
2018-02-19T07:44:27.409Z,30
2018-02-19T07:45:36.338Z,30
2018-02-19T07:46:45.804Z,30
2018-02-19T07:47:55.272Z,35
2018-02-19T07:49:05.039Z,35
2018-02-19T07:50:15.111Z,35
2018-02-19T07:51:24.650Z,35
2018-02-19T07:52:34.128Z,40
2018-02-19T07:53:43.663Z,40
2018-02-19T07:54:53.392Z,45
2018-02-19T07:56:02.883Z,45
2018-02-19T07:57:12.886Z,45
2018-02-19T07:58:22.620Z,45
2018-02-19T07:59:32.092Z,50
2018-02-19T08:00:41.852Z,50
2018-02-19T08:01:51.881Z,50
2018-02-19T08:03:01.355Z,50
2018-02-19T08:04:10.825Z,50
2018-02-19T08:05:20.825Z,50
2018-02-19T08:06:30.573Z,55
2018-02-19T08:07:40.061Z,55
2018-02-19T08:08:49.535Z,55
2018-02-19T08:09:59.618Z,55
2018-02-19T08:11:09.395Z,55
2018-02-19T08:12:19.274Z,55
2018-02-19T08:13:29.008Z,55
2018-02-19T08:14:38.472Z,55
2018-02-19T08:15:47.968Z,55
2018-02-19T08:16:57.987Z,55
2018-02-19T08:18:08.313Z,55
2018-02-19T08:19:18.354Z,55
2018-02-19T08:20:27.820Z,60
2018-02-19T08:21:36.766Z,60
2018-02-19T08:22:46.776Z,60
2018-02-19T08:23:56.694Z,60
2018-02-19T08:25:06.482Z,60
2018-02-19T08:26:16.522Z,60
2018-02-19T08:27:26.300Z,60
2018-02-19T08:28:36.299Z,60
2018-02-19T08:29:45.889Z,60
2018-02-19T08:30:55.432Z,60
2018-02-19T08:32:05.170Z,60
2018-02-19T08:33:14.907Z,60
2018-02-19T08:34:24.921Z,60
2018-02-19T08:35:34.397Z,60
2018-02-19T08:36:43.878Z,60
2018-02-19T08:37:53.357Z,60
2018-02-19T08:39:02.641Z,60
2018-02-19T08:40:12.129Z,65
2018-02-19T08:41:21.937Z,65
2018-02-19T08:42:31.731Z,65
2018-02-19T08:43:41.293Z,65
2018-02-19T08:44:51.345Z,65
2018-02-19T08:46:01.350Z,65
2018-02-19T08:47:10.569Z,65
2018-02-19T08:48:20.312Z,65
2018-02-19T08:49:30.074Z,65
2018-02-19T08:50:40.098Z,70
2018-02-19T08:51:50.108Z,65
2018-02-19T08:53:00.118Z,70
2018-02-19T08:54:09.345Z,70
2018-02-19T08:55:19.080Z,70
2018-02-19T08:56:28.826Z,70
2018-02-19T08:57:38.578Z,70
2018-02-19T08:58:48.385Z,70
2018-02-19T08:59:58.160Z,70
2018-02-19T09:01:07.907Z,75
2018-02-19T09:02:17.374Z,75
2018-02-19T09:03:27.114Z,80
2018-02-19T09:04:36.059Z,80
2018-02-19T09:05:46.125Z,80
2018-02-19T09:06:55.345Z,80
2018-02-19T09:08:05.100Z,80
2018-02-19T09:09:15.116Z,80
2018-02-19T09:10:25.149Z,85
2018-02-19T09:11:34.621Z,85
2018-02-19T09:12:44.268Z,85
2018-02-19T09:13:54.327Z,85
2018-02-19T09:15:03.808Z,85
2018-02-19T09:16:13.286Z,85
2018-02-19T09:17:22.787Z,85
2018-02-19T09:18:32.794Z,85
2018-02-19T09:19:42.542Z,85
2018-02-19T09:20:52.288Z,90
2018-02-19T09:22:02.050Z,95
2018-02-19T09:23:11.800Z,90
2018-02-19T09:24:21.286Z,90
2018-02-19T09:25:30.761Z,90
2018-02-19T09:26:40.291Z,90
2018-02-19T09:27:50.076Z,90
2018-02-19T09:28:59.836Z,90
2018-02-19T09:30:09.580Z,90
2018-02-19T09:31:19.065Z,90
2018-02-19T09:32:28.813Z,90
2018-02-19T09:33:38.560Z,90
2018-02-19T09:34:48.563Z,90
2018-02-19T09:35:58.571Z,90
2018-02-19T09:37:08.328Z,90
2018-02-19T09:38:18.188Z,95
2018-02-19T09:39:27.671Z,95
2018-02-19T09:40:37.674Z,90
2018-02-19T09:41:47.652Z,95
2018-02-19T09:42:57.408Z,95
2018-02-19T09:44:07.158Z,95
2018-02-19T09:45:16.930Z,95
2018-02-19T09:46:26.675Z,95
2018-02-19T09:47:36.452Z,95
2018-02-19T09:48:46.289Z,95
2018-02-19T09:49:55.526Z,95
2018-02-19T09:51:05.486Z,95
2018-02-19T09:52:15.070Z,95
2018-02-19T09:53:24.876Z,95
2018-02-19T09:54:34.008Z,100
2018-02-19T09:55:43.771Z,100
2018-02-19T09:56:53.532Z,100
2018-02-19T09:58:03.040Z,100
2018-02-19T09:59:12.818Z,95
2018-02-19T10:00:22.836Z,100
2018-02-19T10:01:32.890Z,100
2018-02-19T10:02:42.654Z,100
2018-02-19T10:03:51.865Z,100
2018-02-19T10:05:01.386Z,100
2018-02-19T10:06:11.139Z,100
2018-02-19T10:07:20.957Z,100
2018-02-19T10:08:30.706Z,100
2018-02-19T10:09:40.743Z,100
2018-02-19T10:10:49.947Z,105
2018-02-19T10:11:59.431Z,105
2018-02-19T10:13:08.918Z,105
2018-02-19T10:14:18.930Z,100
2018-02-19T10:15:28.521Z,105
2018-02-19T10:16:38.606Z,105
2018-02-19T10:17:48.640Z,105
2018-02-19T10:18:58.391Z,105
2018-02-19T10:20:07.876Z,105
2018-02-19T10:21:17.854Z,105
2018-02-19T10:22:27.059Z,105
2018-02-19T10:23:37.128Z,105
2018-02-19T10:24:46.342Z,110
2018-02-19T10:25:56.369Z,110
2018-02-19T10:27:05.872Z,110
2018-02-19T10:28:15.670Z,110
2018-02-19T10:29:25.430Z,110
2018-02-19T10:30:34.920Z,110
2018-02-19T10:31:45.009Z,110
2018-02-19T10:32:55.172Z,115
2018-02-19T10:34:05.259Z,115
2018-02-19T10:35:15.453Z,120
2018-02-19T10:36:25.353Z,115
2018-02-19T10:37:35.232Z,115
2018-02-19T10:38:45.091Z,115
2018-02-19T10:39:54.846Z,115
2018-02-19T10:41:04.643Z,115
2018-02-19T10:42:14.129Z,115
2018-02-19T10:43:23.886Z,120
2018-02-19T10:44:33.714Z,120
2018-02-19T10:45:43.196Z,120
2018-02-19T10:46:52.944Z,120
2018-02-19T10:48:02.173Z,120
2018-02-19T10:49:11.676Z,120
2018-02-19T10:50:21.452Z,120
2018-02-19T10:51:31.253Z,120
2018-02-19T10:52:40.466Z,120
2018-02-19T10:53:50.235Z,120
2018-02-19T10:54:59.722Z,115
2018-02-19T10:56:09.484Z,120
2018-02-19T10:57:18.996Z,115
2018-02-19T10:58:28.919Z,115
2018-02-19T10:59:39.041Z,115
2018-02-19T11:00:48.223Z,115
2018-02-19T11:01:58.161Z,115
2018-02-19T11:03:08.143Z,115
2018-02-19T11:04:18.189Z,115
2018-02-19T11:05:28.189Z,115
2018-02-19T11:06:38.407Z,115
2018-02-19T11:07:48.373Z,115
2018-02-19T11:08:58.337Z,115
2018-02-19T11:10:08.709Z,115
2018-02-19T11:11:18.700Z,115
2018-02-19T11:12:28.686Z,115
2018-02-19T11:13:38.717Z,115
2018-02-19T11:14:48.975Z,115
2018-02-19T11:15:58.660Z,115
2018-02-19T11:17:08.607Z,115
2018-02-19T11:18:18.607Z,115
2018-02-19T11:19:28.158Z,115
2018-02-19T11:20:38.117Z,115
2018-02-19T11:21:48.314Z,115
2018-02-19T11:22:58.553Z,115
2018-02-19T11:24:08.585Z,115
2018-02-19T11:25:18.289Z,115
2018-02-19T11:26:27.979Z,115
2018-02-19T11:27:38.229Z,115
2018-02-19T11:28:48.193Z,115
2018-02-19T11:29:58.497Z,115
2018-02-19T11:31:08.125Z,115
2018-02-19T11:32:17.835Z,120
2018-02-19T11:33:27.553Z,120
2018-02-19T11:34:36.936Z,115
2018-02-19T11:35:46.898Z,115
2018-02-19T11:36:57.071Z,120
2018-02-19T11:38:07.296Z,115
2018-02-19T11:39:17.132Z,115
2018-02-19T11:40:27.342Z,110
2018-02-19T11:41:37.883Z,110
2018-02-19T11:42:47.700Z,110
2018-02-19T11:43:57.517Z,110
2018-02-19T11:45:07.550Z,110
2018-02-19T11:46:17.566Z,110
2018-02-19T11:47:27.664Z,110
2018-02-19T11:48:37.179Z,110
2018-02-19T11:49:46.658Z,110
2018-02-19T11:50:56.832Z,115
2018-02-19T11:52:06.654Z,120
2018-02-19T11:53:16.951Z,115
2018-02-19T11:54:26.426Z,120
2018-02-19T11:55:36.032Z,120
2018-02-19T11:56:45.858Z,125
2018-02-19T11:57:55.476Z,125
2018-02-19T11:59:04.716Z,120
2018-02-19T12:00:14.741Z,125
2018-02-19T12:01:24.487Z,125
2018-02-19T12:02:33.965Z,130
2018-02-19T12:03:43.759Z,130
2018-02-19T12:04:53.785Z,120
2018-02-19T12:06:03.322Z,120
2018-02-19T12:07:12.662Z,115
2018-02-19T12:08:22.799Z,110
2018-02-19T12:09:32.821Z,110
2018-02-19T12:10:42.318Z,105
2018-02-19T12:11:51.799Z,105
2018-02-19T12:13:01.856Z,105
2018-02-19T12:14:11.527Z,105
2018-02-19T12:15:22.760Z,105
2018-02-19T12:16:32.785Z,100
2018-02-19T12:17:42.560Z,100
2018-02-19T12:18:52.419Z,100
2018-02-19T12:20:02.445Z,100
2018-02-19T12:21:11.944Z,100
2018-02-19T12:22:21.950Z,115
2018-02-19T12:23:31.682Z,135
2018-02-19T12:24:41.393Z,140
2018-02-19T12:25:52.811Z,140
2018-02-19T12:27:02.942Z,145
2018-02-19T12:28:12.152Z,140
2018-02-19T12:29:22.326Z,145
2018-02-19T12:30:32.236Z,150
2018-02-19T12:31:42.213Z,150
2018-02-19T12:32:51.702Z,150
2018-02-19T12:34:03.060Z,150
2018-02-19T12:35:13.508Z,150
2018-02-19T12:36:24.146Z,140
2018-02-19T12:37:34.953Z,125
2018-02-19T12:38:44.673Z,145
2018-02-19T12:39:54.929Z,130
2018-02-19T12:41:05.855Z,145
2018-02-19T12:42:15.807Z,130
2018-02-19T12:43:25.758Z,140
2018-02-19T12:44:35.810Z,140
2018-02-19T12:45:45.857Z,150
2018-02-19T12:46:55.601Z,135
2018-02-19T12:48:04.811Z,135
2018-02-19T12:49:14.663Z,135
2018-02-19T12:50:24.698Z,140
2018-02-19T12:51:34.594Z,145
2018-02-19T12:52:44.167Z,155
2018-02-19T12:53:54.218Z,165
2018-02-19T12:55:04.238Z,155
2018-02-19T12:56:13.991Z,140
2018-02-19T12:57:23.786Z,150
2018-02-19T12:58:34.494Z,140
2018-02-19T12:59:43.983Z,135
2018-02-19T13:00:53.739Z,160
2018-02-19T13:02:03.685Z,150
2018-02-19T13:03:13.417Z,130
2018-02-19T13:04:22.693Z,135
2018-02-19T13:05:32.982Z,130
2018-02-19T13:06:42.768Z,125
2018-02-19T13:07:53.110Z,120
2018-02-19T13:09:03.354Z,120
2018-02-19T13:10:12.686Z,115
2018-02-19T13:11:22.777Z,110
2018-02-19T13:12:32.584Z,115
2018-02-19T13:13:41.822Z,110
2018-02-19T13:14:51.577Z,105
2018-02-19T13:16:01.515Z,115
2018-02-19T13:17:10.737Z,110
2018-02-19T13:18:20.956Z,135
2018-02-19T13:19:30.825Z,140
2018-02-19T13:20:40.389Z,130
2018-02-19T13:21:49.456Z,115
2018-02-19T13:22:59.499Z,110
2018-02-19T13:24:09.624Z,110
2018-02-19T13:25:19.779Z,115
2018-02-19T13:26:29.414Z,120
2018-02-19T13:27:39.371Z,110
2018-02-19T13:28:48.850Z,110
2018-02-19T13:29:58.610Z,115
2018-02-19T13:31:08.388Z,115
2018-02-19T13:32:18.171Z,115
2018-02-19T13:33:28.266Z,115
2018-02-19T13:34:38.126Z,125
2018-02-19T13:35:48.166Z,140
2018-02-19T13:36:57.117Z,120
2018-02-19T13:38:07.208Z,125
2018-02-19T13:39:16.991Z,125
2018-02-19T13:40:26.809Z,135
2018-02-19T13:41:36.582Z,135
2018-02-19T13:42:46.094Z,125
2018-02-19T13:43:55.853Z,120
2018-02-19T13:45:06.279Z,120
2018-02-19T13:46:16.077Z,120
2018-02-19T13:47:25.970Z,125
2018-02-19T13:48:35.494Z,125
2018-02-19T13:49:45.523Z,120
2018-02-19T13:50:55.554Z,115
2018-02-19T13:52:05.070Z,110
2018-02-19T13:53:14.851Z,110
2018-02-19T13:54:24.328Z,110
2018-02-19T13:55:33.905Z,105
2018-02-19T13:56:43.949Z,100
2018-02-19T13:57:53.984Z,95
2018-02-19T13:59:03.744Z,95
2018-02-19T14:00:13.549Z,95
2018-02-19T14:01:23.345Z,95
2018-02-19T14:02:33.125Z,95
2018-02-19T14:03:43.157Z,95
2018-02-19T14:04:53.208Z,95
2018-02-19T14:06:03.234Z,95
2018-02-19T14:07:13.011Z,95
2018-02-19T14:08:22.814Z,100
2018-02-19T14:09:32.608Z,100
2018-02-19T14:10:42.636Z,100
2018-02-19T14:11:51.843Z,95
2018-02-19T14:13:01.367Z,95
2018-02-19T14:14:10.935Z,90
2018-02-19T14:15:20.424Z,90
2018-02-19T14:16:29.910Z,90
2018-02-19T14:17:39.386Z,90
2018-02-19T14:18:49.185Z,90
2018-02-19T14:19:58.929Z,95
2018-02-19T14:21:08.686Z,90
2018-02-19T14:22:18.444Z,85
2018-02-19T14:23:28.290Z,85
2018-02-19T14:24:38.137Z,85
2018-02-19T14:25:47.978Z,85
2018-02-19T14:26:57.776Z,80
2018-02-19T14:28:07.878Z,80
2018-02-19T14:29:17.640Z,85
2018-02-19T14:30:27.408Z,85
2018-02-19T14:31:37.472Z,80
2018-02-19T14:32:47.273Z,80
2018-02-19T14:33:57.389Z,80
2018-02-19T14:35:06.881Z,80
2018-02-19T14:36:16.628Z,80
2018-02-19T14:37:26.378Z,75
2018-02-19T14:38:35.917Z,75
2018-02-19T14:39:45.680Z,75
2018-02-19T14:40:55.531Z,75
2018-02-19T14:42:05.083Z,70
2018-02-19T14:43:14.886Z,70
2018-02-19T14:44:24.943Z,70
2018-02-19T14:45:34.424Z,65
2018-02-19T14:46:44.440Z,65
2018-02-19T14:47:53.923Z,65
2018-02-19T14:49:04.389Z,60
2018-02-19T14:50:13.596Z,60
2018-02-19T14:51:24.096Z,60
2018-02-19T14:52:33.957Z,60
2018-02-19T14:53:43.960Z,55
2018-02-19T14:54:53.773Z,55
2018-02-19T14:56:03.345Z,55
2018-02-19T14:57:13.053Z,55
2018-02-19T14:58:22.952Z,55
2018-02-19T14:59:33.129Z,55
2018-02-19T15:00:42.815Z,55
2018-02-19T15:01:52.567Z,55
2018-02-19T15:03:02.948Z,55
2018-02-19T15:04:12.925Z,55
2018-02-19T15:05:23.272Z,55
2018-02-19T15:06:32.891Z,55
2018-02-19T15:07:42.952Z,55
2018-02-19T15:08:52.439Z,55
2018-02-19T15:10:02.373Z,55
2018-02-19T15:11:12.276Z,55
2018-02-19T15:12:21.795Z,55
2018-02-19T15:13:31.008Z,55
2018-02-19T15:14:40.218Z,55
2018-02-19T15:15:50.244Z,55
2018-02-19T15:16:59.736Z,55
2018-02-19T15:18:09.812Z,55
2018-02-19T15:19:19.874Z,55
2018-02-19T15:20:29.123Z,50
2018-02-19T15:21:38.891Z,50
2018-02-19T15:22:48.750Z,55
2018-02-19T15:23:57.974Z,55
2018-02-19T15:25:07.497Z,55
2018-02-19T15:26:16.983Z,50
2018-02-19T15:27:26.472Z,50
2018-02-19T15:28:36.266Z,50
2018-02-19T15:29:46.086Z,50
2018-02-19T15:30:56.180Z,50
2018-02-19T15:32:05.396Z,45
2018-02-19T15:33:14.900Z,45
2018-02-19T15:34:24.926Z,45
2018-02-19T15:35:34.458Z,45
2018-02-19T15:36:44.491Z,45
2018-02-19T15:37:53.742Z,40
2018-02-19T15:39:03.497Z,40
2018-02-19T15:40:13.261Z,40
2018-02-19T15:41:23.010Z,40
2018-02-19T15:42:33.037Z,40
2018-02-19T15:43:42.288Z,40
2018-02-19T15:44:51.790Z,40
2018-02-19T15:46:01.298Z,40
2018-02-19T15:47:11.072Z,40
2018-02-19T15:48:20.579Z,40
2018-02-19T15:49:30.513Z,40
2018-02-19T15:50:40.060Z,40
2018-02-19T15:51:49.813Z,40
2018-02-19T15:52:59.689Z,40
2018-02-19T15:54:09.590Z,35
2018-02-19T15:55:19.631Z,35
2018-02-19T15:56:29.437Z,35
2018-02-19T15:57:39.571Z,35
2018-02-19T15:58:49.625Z,30
2018-02-19T15:59:59.668Z,30
2018-02-19T16:01:08.650Z,30
2018-02-19T16:02:18.773Z,30
2018-02-19T16:03:28.863Z,25
2018-02-19T16:04:38.685Z,25
2018-02-19T16:05:48.497Z,25
2018-02-19T16:06:57.484Z,25
2018-02-19T16:08:06.753Z,25
2018-02-19T16:09:16.575Z,25
2018-02-19T16:10:26.159Z,25
2018-02-19T16:11:36.301Z,25
2018-02-19T16:12:46.128Z,20
2018-02-19T16:13:56.058Z,20
2018-02-19T16:15:05.611Z,20
2018-02-19T16:16:15.130Z,20
2018-02-19T16:17:25.004Z,20
2018-02-19T16:18:34.826Z,20
2018-02-19T16:19:44.677Z,15
2018-02-19T16:20:53.624Z,15
2018-02-19T16:22:03.774Z,15
2018-02-19T16:23:13.949Z,15
2018-02-19T16:24:23.660Z,15
2018-02-19T16:25:33.170Z,15
2018-02-19T16:26:42.675Z,10
2018-02-19T16:27:52.157Z,10
2018-02-19T16:29:01.646Z,10
2018-02-19T16:30:11.682Z,10
2018-02-19T16:31:21.549Z,10
2018-02-19T16:32:31.327Z,10
2018-02-19T16:33:40.868Z,10
2018-02-19T16:34:50.376Z,10
2018-02-19T16:36:00.470Z,5
2018-02-19T16:37:10.287Z,5
2018-02-19T16:38:20.523Z,5
2018-02-19T16:39:30.586Z,5
2018-02-19T16:40:40.808Z,5
2018-02-19T16:41:50.590Z,5